createdAt,value
2017-10-13T00:03:19.233Z,9.83
2017-10-13T00:13:19.147Z,9.66
2017-10-13T00:23:19.176Z,9.68
2017-10-13T00:33:19.199Z,9.42
2017-10-13T00:43:19.192Z,9.48
2017-10-13T00:53:19.151Z,9.24
2017-10-13T01:03:19.106Z,9.31
2017-10-13T01:13:19.130Z,9.42
2017-10-13T01:23:19.233Z,9.15
2017-10-13T01:33:19.179Z,9.24
2017-10-13T01:43:19.111Z,9.13
2017-10-13T01:53:19.202Z,8.93
2017-10-13T02:03:19.189Z,8.79
2017-10-13T02:13:19.135Z,8.65
2017-10-13T02:23:19.158Z,8.75
2017-10-13T02:33:19.144Z,8.68
2017-10-13T02:43:19.215Z,8.75
2017-10-13T02:53:19.211Z,8.66
2017-10-13T03:03:19.092Z,8.73
2017-10-13T03:13:19.215Z,8.96
2017-10-13T03:23:19.157Z,9.09
2017-10-13T03:33:19.100Z,9.25
2017-10-13T03:43:19.199Z,9.56
2017-10-13T03:53:19.158Z,9.73
2017-10-13T04:03:19.175Z,9.56
2017-10-13T04:13:19.126Z,9.4
2017-10-13T04:23:19.231Z,9.49
2017-10-13T04:33:19.212Z,9.45
2017-10-13T04:43:19.238Z,9.46
2017-10-13T04:53:19.228Z,9.7
2017-10-13T05:03:19.174Z,9.66
2017-10-13T05:13:19.305Z,9.91
2017-10-13T05:23:28.268Z,10.47
2017-10-13T05:33:19.233Z,10.59
2017-10-13T05:43:19.273Z,10.63
2017-10-13T05:53:20.280Z,10.58
2017-10-13T06:03:19.324Z,10.68
2017-10-13T06:13:19.266Z,11.11
2017-10-13T06:23:19.353Z,11.29
2017-10-13T06:33:19.305Z,11.67
2017-10-13T06:43:19.413Z,11.85
2017-10-13T06:53:19.360Z,12.21
2017-10-13T07:03:19.310Z,12.45
2017-10-13T07:13:19.324Z,12.75
2017-10-13T07:23:19.305Z,13.37
2017-10-13T07:33:19.388Z,13.61
2017-10-13T07:43:19.314Z,13.71
2017-10-13T07:53:23.490Z,14.02
2017-10-13T08:03:19.352Z,14.64
2017-10-13T08:13:19.403Z,14.98
2017-10-13T08:23:19.336Z,15.41
2017-10-13T08:33:19.404Z,15.54
2017-10-13T08:43:19.416Z,15.33
2017-10-13T08:53:19.355Z,15.56
2017-10-13T09:03:19.413Z,15.51
2017-10-13T09:13:19.413Z,15.76
2017-10-13T09:23:20.119Z,16.33
2017-10-13T09:33:19.428Z,16.71
2017-10-13T09:43:19.442Z,16.88
2017-10-13T09:53:19.526Z,17
2017-10-13T10:03:19.488Z,17.47
2017-10-13T10:13:19.593Z,17.78
2017-10-13T10:23:19.468Z,18.15
2017-10-13T10:33:19.512Z,17.92
2017-10-13T10:43:19.498Z,18.07
2017-10-13T10:53:19.489Z,18.34
2017-10-13T11:03:19.501Z,18.04
2017-10-13T11:13:19.549Z,18.1
2017-10-13T11:23:19.522Z,18.55
2017-10-13T11:33:19.529Z,18.5
2017-10-13T11:43:19.519Z,18.68
2017-10-13T11:53:19.523Z,18.72
2017-10-13T12:03:19.512Z,18.82
2017-10-13T12:13:19.511Z,18.97
2017-10-13T12:23:19.571Z,19.1
2017-10-13T12:33:19.603Z,19.58
2017-10-13T12:43:19.558Z,19.57
2017-10-13T12:53:19.571Z,19.68
2017-10-13T13:03:19.627Z,19.87
2017-10-13T13:13:19.596Z,19.95
2017-10-13T13:23:19.622Z,19.78
2017-10-13T13:33:19.581Z,19.63
2017-10-13T13:43:19.555Z,19.84
2017-10-13T13:53:19.596Z,19.79
2017-10-13T14:03:19.540Z,19.46
2017-10-13T14:13:19.523Z,19.47
2017-10-13T14:23:19.540Z,19.63
2017-10-13T14:33:19.531Z,19.53
2017-10-13T14:43:19.549Z,19.58
2017-10-13T14:53:19.520Z,19.65
2017-10-13T15:03:19.514Z,19.65
2017-10-13T15:13:19.517Z,19.51
2017-10-13T15:23:19.552Z,19.35
2017-10-13T15:33:19.528Z,19.2
2017-10-13T15:43:19.536Z,19.13
2017-10-13T15:53:19.864Z,19.1
2017-10-13T16:03:19.604Z,18.68
2017-10-13T16:13:19.536Z,18.28
2017-10-13T16:23:19.541Z,17.74
2017-10-13T16:33:19.548Z,17.29
2017-10-13T16:43:19.548Z,16.92
2017-10-13T16:53:19.580Z,16.95
2017-10-13T17:03:19.542Z,16.98
2017-10-13T17:13:19.538Z,17.07
2017-10-13T17:23:19.544Z,17.2
2017-10-13T17:33:19.525Z,17.28
2017-10-13T17:43:19.577Z,17.32
2017-10-13T17:53:19.543Z,17.3
2017-10-13T18:03:19.530Z,17.17
2017-10-13T18:13:19.552Z,16.99
2017-10-13T18:23:19.548Z,16.86
2017-10-13T18:33:19.555Z,16.8
2017-10-13T18:43:19.555Z,16.5
2017-10-13T18:53:19.604Z,16.23
2017-10-13T19:03:19.563Z,15.93
2017-10-13T19:13:19.580Z,15.75
2017-10-13T19:23:19.586Z,15.59
2017-10-13T19:33:19.571Z,15.28
2017-10-13T19:43:21.888Z,15.26
2017-10-13T19:53:21.967Z,15.38
2017-10-13T20:03:22.005Z,15.54
2017-10-13T20:13:21.965Z,15.6
2017-10-13T20:23:21.922Z,15.52
2017-10-13T20:33:20.491Z,15.51
2017-10-13T20:43:19.664Z,15.52
2017-10-13T20:53:19.681Z,15.48
2017-10-13T21:03:19.733Z,15.3
2017-10-13T21:13:19.726Z,15.19
2017-10-13T21:23:19.707Z,14.99
2017-10-13T21:33:19.720Z,15.12
2017-10-13T21:43:19.752Z,15.38
2017-10-13T21:53:19.732Z,15.57
2017-10-13T22:03:19.801Z,15.88
2017-10-13T22:13:19.737Z,15.97
2017-10-13T22:23:19.749Z,16.18
2017-10-13T22:33:19.781Z,16.38
2017-10-13T22:43:19.762Z,16.41
2017-10-13T22:53:19.803Z,16.53
2017-10-13T23:03:19.800Z,16.68
2017-10-13T23:13:19.838Z,16.68
2017-10-13T23:23:19.838Z,16.67
2017-10-13T23:33:19.847Z,16.63
2017-10-13T23:43:19.854Z,16.62
2017-10-13T23:53:19.841Z,16.16
